Time;durP1;ratioP1;P1;durP2;ratioP2;P2;SDS_P1;SDS_P2;PMS_P1;PMS_P2;Temp;Humidity;BMP_temperature;BMP_pressure;BME280_temperature;BME280_humidity;BME280_pressure;Samples;Min_cycle;Max_cycle;Signal;HPM_P1;HPM_P2
2021/05/13 00:00:35;;;;;;;11.30;5.50;;;10.30;99.90;;;;;;5072686;28;20282;-82
2021/05/13 00:03:01;;;;;;;9.07;5.43;;;10.30;99.90;;;;;;5072743;28;20286;-80
2021/05/13 00:05:28;;;;;;;8.87;5.73;;;10.20;99.90;;;;;;5072702;28;20199;-82
2021/05/13 00:07:55;;;;;;;10.57;5.67;;;10.20;99.90;;;;;;5072588;28;20203;-81
2021/05/13 00:10:23;;;;;;;10.60;5.50;;;10.20;99.90;;;;;;5072964;28;20208;-79
2021/05/13 00:12:52;;;;;;;16.47;5.83;;;10.10;99.90;;;;;;5073223;28;20213;-80
2021/05/13 00:15:21;;;;;;;10.90;5.70;;;10.10;99.90;;;;;;5076620;28;20267;-82
2021/05/13 00:17:48;;;;;;;9.27;5.53;;;10.10;99.90;;;;;;5076868;28;20269;-82
2021/05/13 00:20:18;;;;;;;8.47;5.90;;;10.10;99.90;;;;;;5076713;28;20220;-80
2021/05/13 00:22:45;;;;;;;8.63;5.50;;;10.10;99.90;;;;;;5076518;28;20659;-80
2021/05/13 00:25:13;;;;;;;9.40;5.27;;;10.10;99.90;;;;;;5076196;28;20537;-80
2021/05/13 00:27:39;;;;;;;9.27;5.40;;;10.20;99.90;;;;;;5076077;28;20285;-80
2021/05/13 00:30:07;;;;;;;13.47;6.13;;;10.10;99.90;;;;;;5076428;28;20218;-79
2021/05/13 00:32:36;;;;;;;10.07;5.90;;;10.20;99.90;;;;;;5076404;28;20199;-82
2021/05/13 00:35:03;;;;;;;8.87;5.50;;;10.30;99.90;;;;;;5076402;28;20197;-82
2021/05/13 00:37:29;;;;;;;10.90;5.37;;;10.30;99.90;;;;;;5076108;28;20278;-80
2021/05/13 00:39:55;;;;;;;15.13;5.43;;;10.20;99.90;;;;;;5076306;28;20191;-79
2021/05/13 00:42:23;;;;;;;7.60;5.63;;;10.20;99.90;;;;;;5076168;28;20282;-80
2021/05/13 00:44:49;;;;;;;9.93;6.30;;;10.20;99.90;;;;;;5075885;28;20198;-79
2021/05/13 00:47:16;;;;;;;8.87;5.37;;;10.30;99.90;;;;;;5076422;28;20284;-81
2021/05/13 00:49:42;;;;;;;8.70;5.23;;;10.30;99.90;;;;;;5075929;28;20251;-80
2021/05/13 00:52:09;;;;;;;9.63;5.77;;;10.40;99.90;;;;;;5076215;28;20276;-82
2021/05/13 00:54:37;;;;;;;10.93;5.73;;;10.50;99.90;;;;;;5075829;28;20225;-81
2021/05/13 00:57:05;;;;;;;9.17;5.43;;;10.50;99.90;;;;;;5075713;28;20230;-80
2021/05/13 00:59:34;;;;;;;9.40;5.70;;;10.50;99.90;;;;;;5075972;28;20281;-81
2021/05/13 01:02:01;;;;;;;9.43;5.17;;;10.50;99.90;;;;;;5075704;28;20206;-81
2021/05/13 01:04:27;;;;;;;10.30;6.50;;;10.50;99.90;;;;;;5075773;28;20241;-80
2021/05/13 01:06:55;;;;;;;11.70;5.93;;;10.70;99.90;;;;;;5075279;28;20744;-83
2021/05/13 01:09:23;;;;;;;11.13;5.43;;;10.70;99.90;;;;;;5075480;28;20227;-80
2021/05/13 01:11:53;;;;;;;9.43;5.70;;;10.70;99.90;;;;;;5075442;28;20197;-82
2021/05/13 01:14:22;;;;;;;10.43;6.63;;;10.70;99.90;;;;;;5075757;28;20225;-81
2021/05/13 01:16:58;;;;;;;12.23;6.10;;;10.80;99.90;;;;;;5075349;28;20194;-82
2021/05/13 01:19:25;;;;;;;10.10;6.07;;;10.70;99.90;;;;;;5075729;28;20189;-82
2021/05/13 01:21:52;;;;;;;12.00;6.00;;;10.80;99.90;;;;;;5075105;28;20194;-80
2021/05/13 01:24:19;;;;;;;9.60;6.17;;;10.90;99.90;;;;;;5074343;28;20284;-80
2021/05/13 01:26:46;;;;;;;12.70;6.57;;;10.80;99.90;;;;;;5074919;28;20221;-81
2021/05/13 01:29:15;;;;;;;7.73;6.13;;;10.80;99.90;;;;;;5075092;28;20285;-82
2021/05/13 01:31:42;;;;;;;8.97;6.63;;;10.80;99.90;;;;;;5075185;28;20298;-80
2021/05/13 01:34:09;;;;;;;14.67;7.40;;;10.80;99.90;;;;;;5074890;28;20312;-83
2021/05/13 01:36:36;;;;;;;15.73;7.40;;;10.70;99.90;;;;;;5074913;28;20198;-83
2021/05/13 01:39:04;;;;;;;12.73;6.83;;;10.80;99.90;;;;;;5075132;28;20210;-79
2021/05/13 01:41:31;;;;;;;15.17;7.47;;;10.80;99.90;;;;;;5075002;28;20190;-82
2021/05/13 01:43:57;;;;;;;12.00;7.30;;;10.70;99.90;;;;;;5074877;28;20719;-80
2021/05/13 01:46:24;;;;;;;13.60;7.83;;;10.80;99.90;;;;;;5074981;28;20331;-80
2021/05/13 01:48:50;;;;;;;9.63;7.30;;;10.70;99.90;;;;;;5075171;28;20289;-83
2021/05/13 01:51:17;;;;;;;14.57;8.00;;;10.70;99.90;;;;;;5074668;28;20284;-81
2021/05/13 01:53:44;;;;;;;12.70;7.60;;;10.70;99.90;;;;;;5074806;28;20279;-80
2021/05/13 01:56:12;;;;;;;15.57;9.20;;;10.70;99.90;;;;;;5074869;28;20240;-84
2021/05/13 01:58:40;;;;;;;11.87;7.30;;;10.60;99.90;;;;;;5074635;28;20284;-84
2021/05/13 02:01:09;;;;;;;18.30;8.33;;;10.60;99.90;;;;;;5074594;28;20198;-80
2021/05/13 02:03:36;;;;;;;15.07;8.73;;;10.50;99.90;;;;;;5074326;28;20716;-80
2021/05/13 02:06:03;;;;;;;15.07;8.70;;;10.60;99.90;;;;;;5074447;28;20221;-79
2021/05/13 02:08:30;;;;;;;16.13;10.03;;;10.50;99.90;;;;;;5074484;28;20288;-80
2021/05/13 02:10:56;;;;;;;10.63;7.20;;;10.50;99.90;;;;;;5074259;28;20629;-79
2021/05/13 02:13:24;;;;;;;12.97;8.50;;;10.40;99.90;;;;;;5074346;28;20698;-84
2021/05/13 02:15:51;;;;;;;12.63;7.80;;;10.50;99.90;;;;;;5074194;28;20618;-81
2021/05/13 02:18:18;;;;;;;14.83;8.80;;;10.60;99.90;;;;;;5074100;28;20194;-80
2021/05/13 02:20:44;;;;;;;16.13;8.80;;;10.50;99.90;;;;;;5074132;28;20247;-81
2021/05/13 02:23:11;;;;;;;14.70;9.00;;;10.50;99.90;;;;;;5074376;28;20205;-79
2021/05/13 02:25:38;;;;;;;15.10;8.83;;;10.50;99.90;;;;;;5073873;28;20235;-81
2021/05/13 02:28:05;;;;;;;15.30;9.97;;;10.50;99.90;;;;;;5073930;28;20253;-83
2021/05/13 02:30:32;;;;;;;15.13;9.57;;;10.50;99.90;;;;;;5074276;28;20209;-82
2021/05/13 02:32:58;;;;;;;18.07;8.90;;;10.50;99.90;;;;;;5073684;28;20205;-80
2021/05/13 02:35:25;;;;;;;19.43;10.33;;;10.40;99.90;;;;;;5073547;28;20688;-79
2021/05/13 02:37:52;;;;;;;17.73;9.47;;;10.30;99.90;;;;;;5073985;28;20205;-80
2021/05/13 02:40:18;;;;;;;16.50;10.10;;;10.30;99.90;;;;;;5073825;28;20539;-83
2021/05/13 02:42:46;;;;;;;19.20;10.97;;;10.10;99.90;;;;;;5073617;28;20202;-79
2021/05/13 02:45:13;;;;;;;14.67;10.07;;;10.10;99.90;;;;;;5073371;28;20652;-80
2021/05/13 02:47:41;;;;;;;21.37;11.70;;;10.00;99.90;;;;;;5073893;28;20194;-82
2021/05/13 02:50:10;;;;;;;17.93;11.03;;;10.00;99.90;;;;;;5073895;28;20243;-84
2021/05/13 02:52:37;;;;;;;21.20;11.67;;;9.90;99.90;;;;;;5073675;28;20272;-79
2021/05/13 02:55:04;;;;;;;20.63;12.53;;;9.80;99.90;;;;;;5073498;28;20226;-80
2021/05/13 02:57:30;;;;;;;24.33;13.17;;;9.80;99.90;;;;;;5073551;28;20221;-81
2021/05/13 03:00:03;;;;;;;22.47;12.73;;;9.70;99.90;;;;;;5073317;28;20682;-80
2021/05/13 03:02:29;;;;;;;26.60;13.13;;;9.50;99.90;;;;;;5073734;28;20194;-83
2021/05/13 03:04:57;;;;;;;23.07;13.23;;;9.50;99.90;;;;;;5073490;28;20231;-80
2021/05/13 03:07:23;;;;;;;22.53;13.43;;;9.40;99.90;;;;;;5073779;28;20293;-80
2021/05/13 03:09:55;;;;;;;21.73;14.10;;;9.40;99.90;;;;;;5073772;28;20197;-80
2021/05/13 03:12:21;;;;;;;25.13;13.70;;;9.40;99.90;;;;;;5072964;28;20231;-81
2021/05/13 03:14:48;;;;;;;26.80;14.57;;;9.40;99.90;;;;;;5073458;28;20330;-80
2021/05/13 03:17:14;;;;;;;21.30;13.20;;;9.40;99.90;;;;;;5073565;28;20193;-80
2021/05/13 03:19:44;;;;;;;22.53;13.63;;;9.30;99.90;;;;;;5072840;28;20632;-80
2021/05/13 03:22:15;;;;;;;28.83;14.17;;;9.20;99.90;;;;;;5073260;28;20196;-80
2021/05/13 03:24:46;;;;;;;29.07;14.57;;;9.20;99.90;;;;;;5073046;28;20208;-80
2021/05/13 03:27:14;;;;;;;28.67;15.00;;;9.20;99.90;;;;;;5072964;28;20251;-80
2021/05/13 03:29:41;;;;;;;26.80;14.90;;;9.10;99.90;;;;;;5073058;28;20221;-82
2021/05/13 03:32:07;;;;;;;25.97;14.77;;;9.00;99.90;;;;;;5073028;28;20606;-81
2021/05/13 03:34:34;;;;;;;27.57;15.60;;;8.90;99.90;;;;;;5072874;28;20712;-79
2021/05/13 03:37:00;;;;;;;30.20;16.30;;;8.90;99.90;;;;;;5073430;28;20543;-81
2021/05/13 03:39:27;;;;;;;30.13;16.77;;;9.00;99.90;;;;;;5073009;28;20562;-80
2021/05/13 03:41:55;;;;;;;32.50;17.10;;;8.90;99.90;;;;;;5072793;28;20639;-80
2021/05/13 03:44:21;;;;;;;32.43;17.60;;;8.90;99.90;;;;;;5072897;28;20197;-79
2021/05/13 03:46:48;;;;;;;32.10;16.57;;;8.90;99.90;;;;;;5073067;28;20307;-80
2021/05/13 03:49:14;;;;;;;28.43;16.57;;;9.00;99.90;;;;;;5076238;28;20295;-81
2021/05/13 03:51:41;;;;;;;33.13;16.80;;;8.90;99.90;;;;;;5077215;28;20250;-82
2021/05/13 03:54:08;;;;;;;32.00;17.47;;;9.00;99.90;;;;;;5076736;28;20252;-81
2021/05/13 03:56:36;;;;;;;32.70;17.40;;;9.00;99.90;;;;;;5076723;28;20666;-82
2021/05/13 03:59:08;;;;;;;27.87;18.07;;;9.00;99.90;;;;;;5076778;28;20290;-81
2021/05/13 04:01:46;;;;;;;31.00;17.27;;;9.00;99.90;;;;;;5076838;28;20727;-83
2021/05/13 04:04:12;;;;;;;33.17;18.60;;;9.00;99.90;;;;;;5076577;28;20201;-81
2021/05/13 04:06:40;;;;;;;33.17;18.60;;;8.90;99.90;;;;;;5077040;28;20288;-80
2021/05/13 04:09:08;;;;;;;37.23;19.43;;;8.80;99.90;;;;;;5077290;28;20208;-84
2021/05/13 04:11:36;;;;;;;38.20;20.17;;;8.70;99.90;;;;;;5076873;28;20196;-82
2021/05/13 04:14:03;;;;;;;38.40;19.83;;;8.80;99.90;;;;;;5076644;28;20215;-80
2021/05/13 04:16:32;;;;;;;35.33;20.70;;;9.00;99.90;;;;;;5076812;28;20234;-80
2021/05/13 04:18:58;;;;;;;42.93;20.43;;;9.10;99.90;;;;;;5076517;28;20553;-81
2021/05/13 04:21:25;;;;;;;37.07;19.23;;;9.20;99.90;;;;;;5076516;28;20551;-80
2021/05/13 04:23:51;;;;;;;35.60;18.87;;;9.30;99.90;;;;;;5076222;28;20559;-80
2021/05/13 04:26:18;;;;;;;34.30;18.50;;;9.30;99.90;;;;;;5076552;28;20582;-80
2021/05/13 04:28:45;;;;;;;33.37;17.70;;;9.40;99.90;;;;;;5076313;28;20277;-80
2021/05/13 04:31:11;;;;;;;29.23;17.07;;;9.40;99.90;;;;;;5076684;28;20509;-80
2021/05/13 04:33:38;;;;;;;31.27;16.63;;;9.40;99.90;;;;;;5076109;28;20229;-81
2021/05/13 04:36:05;;;;;;;26.67;16.70;;;9.60;99.90;;;;;;5075998;28;20243;-82
2021/05/13 04:38:32;;;;;;;25.77;15.00;;;10.10;99.90;;;;;;5075981;28;20244;-80
2021/05/13 04:40:58;;;;;;;21.00;12.93;;;11.00;99.90;;;;;;5076077;28;20529;-81
2021/05/13 04:43:31;;;;;;;17.50;11.83;;;11.90;99.90;;;;;;5075916;28;20299;-81
2021/05/13 04:45:58;;;;;;;15.47;10.90;;;12.80;99.90;;;;;;5075737;28;20720;-80
2021/05/13 04:48:26;;;;;;;11.77;8.07;;;13.90;99.90;;;;;;5075767;28;20279;-81
2021/05/13 04:50:53;;;;;;;11.67;8.03;;;15.00;99.90;;;;;;5075730;28;20521;-78
2021/05/13 04:53:19;;;;;;;11.90;7.90;;;16.00;99.90;;;;;;5075639;28;20294;-82
2021/05/13 04:55:45;;;;;;;10.57;8.03;;;16.60;99.90;;;;;;5075675;28;20278;-82
2021/05/13 04:58:12;;;;;;;13.87;7.80;;;16.80;99.90;;;;;;5075806;28;20238;-82
2021/05/13 05:00:38;;;;;;;13.13;8.67;;;16.40;99.90;;;;;;5075452;28;20282;-81
2021/05/13 05:03:06;;;;;;;13.23;9.00;;;15.90;99.90;;;;;;5075388;28;20708;-80
2021/05/13 05:05:32;;;;;;;12.70;9.07;;;15.50;99.90;;;;;;5075322;28;20203;-82
2021/05/13 05:07:59;;;;;;;14.30;9.23;;;15.10;99.90;;;;;;5075494;28;20196;-79
2021/05/13 05:10:25;;;;;;;14.07;9.73;;;14.80;99.90;;;;;;5075508;28;20277;-79
2021/05/13 05:12:51;;;;;;;15.27;9.67;;;14.50;99.90;;;;;;5075443;28;20196;-80
2021/05/13 05:15:18;;;;;;;14.00;9.23;;;14.60;99.90;;;;;;5075093;28;20752;-79
2021/05/13 05:17:44;;;;;;;12.27;8.90;;;15.30;99.90;;;;;;5075342;28;20191;-80
2021/05/13 05:20:12;;;;;;;20.47;9.90;;;16.00;99.90;;;;;;5075084;28;20549;-80
2021/05/13 05:22:39;;;;;;;13.83;9.30;;;16.10;99.90;;;;;;5075045;28;20286;-80
2021/05/13 05:25:07;;;;;;;13.00;8.97;;;16.20;99.90;;;;;;5075402;28;20195;-80
2021/05/13 05:27:34;;;;;;;15.60;8.93;;;16.10;99.90;;;;;;5075179;28;20226;-79
2021/05/13 05:30:00;;;;;;;15.33;8.33;;;16.10;99.90;;;;;;5074983;28;20195;-79
2021/05/13 05:32:27;;;;;;;13.10;8.80;;;15.70;99.90;;;;;;5075147;28;20248;-81
2021/05/13 05:34:53;;;;;;;11.30;8.73;;;15.60;99.90;;;;;;5073757;28;20215;-81
2021/05/13 05:37:20;;;;;;;11.60;8.63;;;15.40;99.90;;;;;;5073974;28;20195;-81
2021/05/13 05:39:47;;;;;;;12.63;8.50;;;15.40;99.90;;;;;;5073843;28;20278;-79
2021/05/13 05:42:13;;;;;;;13.23;7.70;;;15.50;99.90;;;;;;5074611;28;20633;-82
2021/05/13 05:44:40;;;;;;;11.23;8.17;;;15.60;99.90;;;;;;5074688;28;20202;-82
2021/05/13 05:47:06;;;;;;;12.53;7.20;;;15.80;99.90;;;;;;5073608;28;20218;-79
2021/05/13 05:49:32;;;;;;;11.37;7.00;;;16.00;99.90;;;;;;5067776;28;20194;-80
2021/05/13 05:51:59;;;;;;;12.00;7.47;;;15.90;99.90;;;;;;5073852;28;20286;-80
2021/05/13 05:54:27;;;;;;;13.07;6.60;;;15.90;99.90;;;;;;5073768;28;20229;-82
2021/05/13 05:56:53;;;;;;;12.17;6.97;;;15.80;99.90;;;;;;5073447;28;20337;-78
2021/05/13 05:59:19;;;;;;;12.77;7.30;;;15.90;99.90;;;;;;5073911;28;20546;-81
2021/05/13 06:01:46;;;;;;;11.73;7.10;;;15.90;99.90;;;;;;5073930;28;20245;-79
2021/05/13 06:04:12;;;;;;;13.67;7.07;;;15.70;99.90;;;;;;5074251;28;20191;-81
2021/05/13 06:06:38;;;;;;;15.70;6.80;;;15.70;99.90;;;;;;5074634;28;20214;-79
2021/05/13 06:09:06;;;;;;;13.43;6.77;;;15.50;99.90;;;;;;5074196;28;20223;-80
2021/05/13 06:11:33;;;;;;;15.23;7.30;;;15.40;99.90;;;;;;5074833;28;20198;-79
2021/05/13 06:14:00;;;;;;;13.10;6.93;;;15.30;99.90;;;;;;5074925;28;20315;-79
2021/05/13 06:16:26;;;;;;;9.77;6.70;;;15.20;99.90;;;;;;5074740;28;20517;-81
2021/05/13 06:18:54;;;;;;;13.97;7.40;;;15.30;99.90;;;;;;5074132;28;20206;-79
2021/05/13 06:21:21;;;;;;;12.23;6.70;;;15.10;99.90;;;;;;5074546;28;20195;-79
2021/05/13 06:23:50;;;;;;;11.93;7.33;;;15.20;99.90;;;;;;5074402;28;20646;-79
2021/05/13 06:26:24;;;;;;;12.97;7.10;;;15.30;99.90;;;;;;5071703;28;20214;-79
2021/05/13 06:28:51;;;;;;;12.77;6.70;;;15.40;99.90;;;;;;5074509;28;20286;-80
2021/05/13 06:31:18;;;;;;;13.43;6.80;;;15.40;99.90;;;;;;5074067;28;20658;-82
2021/05/13 06:33:44;;;;;;;13.33;6.67;;;15.20;99.90;;;;;;5074023;28;20215;-79
2021/05/13 06:36:10;;;;;;;11.50;6.73;;;15.10;99.90;;;;;;5074323;28;20278;-79
2021/05/13 06:38:37;;;;;;;16.50;7.00;;;15.00;99.90;;;;;;5073651;28;20223;-79
2021/05/13 06:41:05;;;;;;;8.17;5.63;;;15.00;99.90;;;;;;5074260;28;20222;-79
2021/05/13 06:43:32;;;;;;;9.80;6.50;;;15.00;99.90;;;;;;5074051;28;20192;-80
2021/05/13 06:45:59;;;;;;;11.57;5.97;;;15.20;99.90;;;;;;5073803;28;20272;-79
2021/05/13 06:48:26;;;;;;;14.60;5.33;;;15.20;99.90;;;;;;5072904;28;20278;-78
2021/05/13 06:50:52;;;;;;;7.97;5.13;;;15.20;99.90;;;;;;5072863;28;20210;-78
2021/05/13 06:53:19;;;;;;;12.33;5.90;;;15.20;99.90;;;;;;5072685;28;20205;-79
2021/05/13 06:55:49;;;;;;;8.47;5.07;;;15.40;99.90;;;;;;5073517;28;20670;-80
2021/05/13 06:58:15;;;;;;;12.03;6.03;;;15.50;99.90;;;;;;5074277;28;20219;-79
2021/05/13 07:00:42;;;;;;;8.27;5.77;;;15.40;99.90;;;;;;5073953;28;20194;-80
2021/05/13 07:03:09;;;;;;;7.67;6.10;;;15.50;99.90;;;;;;5073407;28;20206;-78
2021/05/13 07:05:35;;;;;;;11.47;7.07;;;15.60;99.90;;;;;;5073141;28;20253;-80
2021/05/13 07:08:02;;;;;;;11.37;6.57;;;15.50;99.90;;;;;;5072954;28;20571;-78
2021/05/13 07:10:30;;;;;;;12.93;7.27;;;15.60;99.90;;;;;;5073087;28;20714;-79
2021/05/13 07:12:56;;;;;;;16.53;7.50;;;15.70;99.90;;;;;;5072663;28;20199;-80
2021/05/13 07:15:23;;;;;;;9.03;6.50;;;15.80;99.90;;;;;;5073126;28;20310;-79
2021/05/13 07:17:49;;;;;;;9.17;5.97;;;16.00;99.90;;;;;;5072861;28;20642;-79
2021/05/13 07:20:19;;;;;;;9.67;6.40;;;16.10;99.90;;;;;;5072790;28;20198;-79
2021/05/13 07:22:45;;;;;;;11.03;5.50;;;16.40;99.90;;;;;;5071791;28;20551;-79
2021/05/13 07:25:12;;;;;;;6.70;5.33;;;16.60;99.90;;;;;;5072694;28;20223;-79
2021/05/13 07:27:39;;;;;;;8.10;4.73;;;16.90;99.90;;;;;;5072650;28;20602;-79
2021/05/13 07:30:06;;;;;;;9.80;4.40;;;17.10;99.90;;;;;;5072466;28;20725;-79
2021/05/13 07:32:33;;;;;;;9.47;3.97;;;17.10;99.90;;;;;;5072434;28;20195;-80
2021/05/13 07:34:59;;;;;;;8.90;3.73;;;17.20;99.90;;;;;;5072493;28;20226;-79
2021/05/13 07:37:26;;;;;;;8.60;3.80;;;17.20;99.90;;;;;;5072009;28;20645;-78
2021/05/13 07:39:53;;;;;;;7.00;3.23;;;17.50;99.90;;;;;;5071953;28;20188;-79
2021/05/13 07:42:20;;;;;;;9.50;3.27;;;17.70;99.90;;;;;;5071888;28;20199;-77
2021/05/13 07:44:47;;;;;;;6.47;3.00;;;18.00;99.90;;;;;;5071177;28;20281;-78
2021/05/13 07:47:13;;;;;;;7.43;2.80;;;18.20;99.90;;;;;;5066697;28;20203;-78
2021/05/13 07:49:41;;;;;;;5.87;3.10;;;18.30;99.90;;;;;;5060000;28;20203;-79
2021/05/13 07:52:07;;;;;;;9.00;3.13;;;18.70;99.90;;;;;;5069255;28;20624;-79
2021/05/13 07:54:34;;;;;;;10.03;3.00;;;19.10;99.90;;;;;;5072228;28;20214;-79
2021/05/13 07:57:01;;;;;;;8.47;3.13;;;19.70;99.90;;;;;;5072028;28;20252;-78
2021/05/13 07:59:27;;;;;;;6.50;3.10;;;20.10;99.90;;;;;;5061889;28;20606;-78
2021/05/13 08:01:55;;;;;;;5.83;2.90;;;20.10;99.90;;;;;;5053763;28;20283;-79
2021/05/13 08:04:21;;;;;;;9.23;3.00;;;20.10;99.90;;;;;;5066149;28;20202;-78
2021/05/13 08:06:49;;;;;;;6.17;2.90;;;20.10;99.90;;;;;;5052345;28;20248;-79
2021/05/13 08:09:15;;;;;;;4.93;2.77;;;20.00;99.90;;;;;;5074599;28;20203;-79
2021/05/13 08:11:42;;;;;;;10.30;3.47;;;19.80;99.90;;;;;;5064599;28;20279;-78
2021/05/13 08:14:09;;;;;;;5.40;3.00;;;19.70;99.90;;;;;;5060639;28;20306;-78
2021/05/13 08:16:35;;;;;;;7.37;3.10;;;19.70;99.90;;;;;;5076362;28;20195;-78
2021/05/13 08:19:02;;;;;;;7.43;2.77;;;19.70;99.90;;;;;;5056651;28;20204;-78
2021/05/13 08:21:28;;;;;;;7.20;2.40;;;19.60;99.90;;;;;;5060210;28;20714;-78
2021/05/13 08:23:54;;;;;;;6.10;2.87;;;19.60;99.90;;;;;;5070203;28;20196;-78
2021/05/13 08:26:21;;;;;;;13.07;2.70;;;20.00;99.90;;;;;;5073102;28;20192;-78
2021/05/13 08:28:48;;;;;;;10.87;2.77;;;20.00;99.90;;;;;;5056734;28;20197;-79
2021/05/13 08:31:15;;;;;;;4.73;2.30;;;20.30;99.90;;;;;;5068682;28;20195;-78
2021/05/13 08:33:43;;;;;;;8.90;2.73;;;20.70;99.90;;;;;;5060541;28;20193;-78
2021/05/13 08:36:09;;;;;;;7.40;2.50;;;20.60;99.90;;;;;;5057635;28;20196;-77
2021/05/13 08:38:36;;;;;;;3.43;1.97;;;20.50;99.90;;;;;;5059639;28;20184;-78
2021/05/13 08:41:02;;;;;;;6.40;2.40;;;20.40;99.90;;;;;;5066371;28;20198;-77
2021/05/13 08:43:30;;;;;;;6.47;2.17;;;20.30;99.90;;;;;;5069314;28;20207;-79
2021/05/13 08:45:58;;;;;;;6.13;2.27;;;20.30;99.90;;;;;;5056096;28;20204;-77
2021/05/13 08:48:27;;;;;;;7.43;2.03;;;20.10;99.90;;;;;;5068043;28;20198;-78
2021/05/13 08:50:53;;;;;;;6.30;2.00;;;20.10;99.90;;;;;;5066281;28;20245;-77
2021/05/13 08:53:20;;;;;;;6.10;2.00;;;20.10;99.90;;;;;;5074704;28;20278;-77
2021/05/13 08:55:47;;;;;;;6.30;2.13;;;19.80;99.90;;;;;;5068880;28;20216;-78
2021/05/13 08:58:13;;;;;;;4.93;1.67;;;19.70;99.90;;;;;;5056839;28;20250;-78
2021/05/13 09:00:50;;;;;;;5.37;1.93;;;19.90;99.90;;;;;;5064583;28;20197;-77
2021/05/13 09:03:30;;;;;;;5.13;1.83;;;19.90;99.90;;;;;;5072973;28;20282;-79
2021/05/13 09:05:57;;;;;;;6.17;1.87;;;20.00;99.90;;;;;;5067354;28;20298;-77
2021/05/13 09:08:24;;;;;;;5.40;2.00;;;20.10;99.90;;;;;;5062322;28;20216;-78
2021/05/13 09:10:51;;;;;;;6.47;1.80;;;20.70;99.90;;;;;;5059994;28;20192;-79
2021/05/13 09:13:27;;;;;;;5.83;1.63;;;21.80;99.90;;;;;;5073944;28;20640;-78
2021/05/13 09:15:53;;;;;;;4.47;1.58;;;22.50;99.90;;;;;;5071602;28;20204;-77
2021/05/13 09:18:31;;;;;;;6.93;1.75;;;23.10;99.90;;;;;;5055045;28;20275;-78
2021/05/13 09:21:05;;;;;;;4.60;1.90;;;23.70;99.90;;;;;;5058991;28;20655;-79
2021/05/13 09:23:32;;;;;;;4.65;2.00;;;24.20;99.90;;;;;;5074562;28;20605;-78
2021/05/13 09:26:08;;;;;;;7.18;2.25;;;24.30;99.90;;;;;;5061394;28;20208;-78
2021/05/13 09:28:36;;;;;;;3.28;1.85;;;24.50;99.90;;;;;;5055482;28;20210;-78
2021/05/13 09:31:03;;;;;;;6.88;2.33;;;24.20;99.90;;;;;;5059261;28;20279;-77
2021/05/13 09:33:32;;;;;;;3.95;2.13;;;24.00;99.90;;;;;;5064778;28;20196;-79
2021/05/13 09:36:17;;;;;;;5.57;1.88;;;23.90;99.90;;;;;;5072340;28;20658;-78
2021/05/13 09:38:44;;;;;;;5.00;2.20;;;24.10;99.90;;;;;;5057611;28;20209;-78
2021/05/13 09:41:10;;;;;;;4.80;1.92;;;24.30;99.90;;;;;;5072486;28;20199;-78
2021/05/13 09:43:38;;;;;;;7.03;2.10;;;24.40;99.90;;;;;;5073359;28;20200;-78
2021/05/13 09:46:06;;;;;;;4.47;2.28;;;24.30;99.90;;;;;;5068018;28;20195;-79
2021/05/13 09:48:38;;;;;;;4.25;2.20;;;24.40;99.90;;;;;;5071574;28;20192;-78
2021/05/13 09:51:22;;;;;;;7.65;2.17;;;23.50;99.90;;;;;;5071321;28;20253;-78
2021/05/13 09:53:49;;;;;;;7.97;2.33;;;23.50;99.90;;;;;;5074354;28;20191;-79
2021/05/13 09:56:26;;;;;;;5.85;1.83;;;23.40;99.90;;;;;;5068976;28;20668;-77
2021/05/13 09:58:52;;;;;;;4.95;1.65;;;23.10;99.90;;;;;;5071408;28;20179;-78
2021/05/13 10:01:19;;;;;;;12.35;2.00;;;23.30;99.90;;;;;;5072122;28;20286;-78
2021/05/13 10:03:47;;;;;;;5.55;2.20;;;23.10;99.90;;;;;;5075059;28;20207;-77
2021/05/13 10:06:13;;;;;;;4.40;1.83;;;22.60;99.90;;;;;;5069989;28;20552;-78
2021/05/13 10:08:42;;;;;;;8.15;2.22;;;22.70;99.90;;;;;;5073230;28;20231;-77
2021/05/13 10:11:09;;;;;;;10.43;2.70;;;22.80;99.90;;;;;;5072554;28;20190;-78
2021/05/13 10:13:36;;;;;;;8.02;2.03;;;23.20;99.90;;;;;;5073133;28;20286;-77
2021/05/13 10:16:04;;;;;;;7.40;2.08;;;23.30;99.90;;;;;;5073234;28;20176;-77
2021/05/13 10:18:35;;;;;;;8.20;2.17;;;23.40;99.90;;;;;;5068292;28;20191;-77
2021/05/13 10:21:06;;;;;;;6.00;2.30;;;22.90;99.90;;;;;;5072281;28;20191;-77
2021/05/13 10:23:32;;;;;;;11.52;2.55;;;22.80;99.90;;;;;;5070913;28;20180;-78
2021/05/13 10:25:59;;;;;;;5.43;2.00;;;22.60;99.90;;;;;;5069348;28;20739;-77
2021/05/13 10:28:30;;;;;;;7.25;1.98;;;22.50;99.90;;;;;;5069100;28;20274;-77
2021/05/13 10:31:05;;;;;;;10.60;2.03;;;22.00;99.90;;;;;;5070911;28;20222;-77
2021/05/13 10:33:48;;;;;;;8.15;2.92;;;21.60;99.90;;;;;;5070193;28;20354;-78
2021/05/13 10:36:17;;;;;;;6.73;2.50;;;21.90;99.90;;;;;;5068301;28;20184;-79
2021/05/13 10:38:54;;;;;;;8.13;1.93;;;22.00;99.90;;;;;;5073275;28;20282;-77
2021/05/13 10:41:35;;;;;;;6.73;2.20;;;21.80;99.90;;;;;;5071778;28;20661;-78
2021/05/13 10:44:36;;;;;;;5.67;1.90;;;21.30;99.90;;;;;;5069387;28;20192;-78
2021/05/13 10:47:03;;;;;;;4.63;1.90;;;21.10;99.90;;;;;;5071744;28;20582;-77
2021/05/13 10:49:30;;;;;;;10.30;2.83;;;20.90;99.90;;;;;;5072536;28;20649;-78
2021/05/13 10:51:58;;;;;;;6.03;2.20;;;20.60;99.90;;;;;;5078294;28;20281;-78
2021/05/13 10:54:45;;;;;;;4.50;1.80;;;20.70;99.90;;;;;;5084032;28;20207;-78
2021/05/13 10:57:17;;;;;;;5.00;1.70;;;20.60;99.90;;;;;;5080132;28;20188;-78
2021/05/13 11:00:18;;;;;;;5.93;1.97;;;20.40;99.90;;;;;;5083664;28;20239;-77
2021/05/13 11:02:45;;;;;;;3.70;2.07;;;20.60;99.90;;;;;;5083782;28;20187;-79
2021/05/13 11:05:38;;;;;;;8.67;2.43;;;20.80;99.90;;;;;;5082402;28;20686;-78
2021/05/13 11:08:44;;;;;;;4.50;2.20;;;20.90;99.90;;;;;;5078300;28;20227;-79
2021/05/13 11:11:10;;;;;;;7.30;2.37;;;21.00;99.90;;;;;;5083434;28;20186;-77
2021/05/13 11:13:54;;;;;;;8.83;2.87;;;21.10;99.90;;;;;;5082589;28;20193;-78
2021/05/13 11:16:52;;;;;;;5.53;2.30;;;21.30;99.90;;;;;;5081702;28;20176;-77
2021/05/13 11:19:25;;;;;;;8.90;2.40;;;21.90;99.90;;;;;;5080651;28;20191;-78
2021/05/13 11:22:00;;;;;;;8.15;2.30;;;22.50;99.90;;;;;;5078918;28;20617;-77
2021/05/13 11:24:41;;;;;;;8.07;2.65;;;23.20;99.90;;;;;;5081483;28;20207;-78
2021/05/13 11:27:09;;;;;;;6.45;2.35;;;23.60;99.90;;;;;;5081548;28;20230;-77
2021/05/13 11:29:50;;;;;;;6.80;2.40;;;24.30;99.90;;;;;;5082032;28;20278;-76
2021/05/13 11:32:18;;;;;;;4.60;2.40;;;25.60;99.90;;;;;;5080032;28;20195;-78
2021/05/13 11:34:46;;;;;;;4.93;2.20;;;26.50;99.90;;;;;;5081069;28;20309;-78
2021/05/13 11:37:37;;;;;;;6.35;2.30;;;26.20;99.90;;;;;;5078755;28;20271;-78
2021/05/13 11:40:32;;;;;;;6.82;2.53;;;26.10;99.90;;;;;;5081948;28;20328;-77
2021/05/13 11:43:31;;;;;;;7.47;2.17;;;28.60;99.90;;;;;;5044795;28;20277;-78
2021/05/13 11:45:59;;;;;;;3.55;2.22;;;30.30;99.90;;;;;;5020123;28;20186;-79
2021/05/13 11:48:28;;;;;;;5.00;2.10;;;31.60;99.90;;;;;;5066533;28;20199;-78
2021/05/13 11:50:55;;;;;;;4.95;1.90;;;31.70;99.90;;;;;;5079064;28;20282;-78
2021/05/13 11:53:23;;;;;;;8.88;2.28;;;31.70;99.90;;;;;;5080046;28;20192;-79
2021/05/13 11:55:51;;;;;;;6.82;2.47;;;30.70;99.90;;;;;;5083256;28;20211;-78
2021/05/13 11:58:43;;;;;;;9.18;2.90;;;29.70;99.90;;;;;;5072738;28;20650;-79
2021/05/13 12:01:33;;;;;;;6.32;2.92;;;28.20;99.90;;;;;;5057716;28;20693;-79
2021/05/13 12:04:11;;;;;;;6.38;3.05;;;26.60;99.90;;;;;;5074661;28;20200;-78
2021/05/13 12:06:55;;;;;;;6.85;3.35;;;25.60;99.90;;;;;;5078636;28;20660;-78
2021/05/13 12:09:25;;;;;;;8.88;3.80;;;24.90;99.90;;;;;;5066808;28;20731;-78
2021/05/13 12:11:54;;;;;;;4.80;3.15;;;23.90;99.90;;;;;;5077933;28;20228;-78
2021/05/13 12:14:24;;;;;;;5.85;3.35;;;22.20;99.90;;;;;;5083724;28;20261;-78
2021/05/13 12:16:53;;;;;;;8.27;3.60;;;20.70;99.90;;;;;;5082630;28;20656;-80
2021/05/13 12:19:20;;;;;;;7.23;3.63;;;19.50;99.90;;;;;;5080291;28;20183;-79
2021/05/13 12:21:52;;;;;;;6.77;3.40;;;18.30;99.90;;;;;;5079545;28;20207;-79
2021/05/13 12:24:25;;;;;;;6.40;3.00;;;17.20;99.90;;;;;;5079613;28;20273;-78
2021/05/13 12:26:55;;;;;;;8.90;2.93;;;16.30;99.90;;;;;;5081395;28;20188;-85
2021/05/13 12:29:22;;;;;;;8.67;3.63;;;15.20;99.90;;;;;;5084575;28;20273;-81
2021/05/13 12:31:50;;;;;;;6.30;2.93;;;14.30;99.90;;;;;;5086012;28;20226;-82
2021/05/13 12:34:34;;;;;;;6.30;3.20;;;13.70;99.90;;;;;;5083368;28;20249;-82
2021/05/13 12:37:01;;;;;;;5.27;2.83;;;13.30;99.90;;;;;;5077938;28;20196;-82
2021/05/13 12:39:32;;;;;;;4.83;3.33;;;13.10;99.90;;;;;;5079253;28;20194;-80
2021/05/13 12:42:00;;;;;;;3.80;2.63;;;13.00;99.90;;;;;;5081002;28;20191;-80
2021/05/13 12:44:28;;;;;;;6.83;2.80;;;12.90;99.90;;;;;;5072034;28;20204;-80
2021/05/13 12:46:58;;;;;;;3.30;2.57;;;12.80;99.90;;;;;;5079052;28;20649;-80
2021/05/13 12:49:28;;;;;;;4.77;2.37;;;12.70;99.90;;;;;;5075455;28;20277;-83